createdAt,value
2019-02-16T00:07:22.042Z,23
2019-02-16T00:17:21.250Z,23.1
2019-02-16T00:27:20.459Z,23.1
2019-02-16T00:37:19.670Z,23.1
2019-02-16T00:47:18.876Z,23.2
2019-02-16T00:57:18.085Z,23.1
2019-02-16T01:07:17.290Z,23.2
2019-02-16T01:17:16.497Z,23.2
2019-02-16T01:27:15.705Z,23.2
2019-02-16T01:37:14.962Z,23.2
2019-02-16T01:47:14.119Z,23.2
2019-02-16T01:57:13.327Z,23.2
2019-02-16T02:07:12.536Z,23.2
2019-02-16T02:17:11.744Z,23.2
2019-02-16T02:27:10.955Z,23.1
2019-02-16T02:37:10.157Z,23.1
2019-02-16T02:47:09.362Z,23.1
2019-02-16T02:57:08.570Z,23.1
2019-02-16T03:07:07.776Z,23.1
2019-02-16T03:17:06.984Z,23.1
2019-02-16T03:27:06.189Z,23.1
2019-02-16T03:33:51.820Z,23.1
2019-02-16T03:43:51.024Z,23.1
2019-02-16T03:53:50.231Z,23.1
2019-02-16T04:03:49.436Z,23.1
2019-02-16T04:13:48.643Z,23.3
2019-02-16T04:23:48.093Z,23.2
2019-02-16T04:33:47.113Z,23.3
2019-02-16T04:43:46.362Z,23.3
2019-02-16T04:53:45.657Z,23.1
2019-02-16T05:03:44.949Z,23.1
2019-02-16T05:13:44.239Z,23
2019-02-16T05:23:43.529Z,23
2019-02-16T05:33:42.778Z,23
2019-02-16T05:43:41.995Z,22.9
2019-02-16T05:53:41.189Z,22.9
2019-02-16T06:03:40.396Z,23
2019-02-16T06:13:39.601Z,23.1
2019-02-16T06:23:38.859Z,23.3
2019-02-16T06:29:34.838Z,23.3
2019-02-16T06:35:10.904Z,23.3
2019-02-16T06:45:10.111Z,24.8
2019-02-16T06:55:09.317Z,24.6
2019-02-16T07:05:08.523Z,24.1
2019-02-16T07:15:07.731Z,23.7
2019-02-16T07:25:06.949Z,24
2019-02-16T07:35:06.160Z,24.3
2019-02-16T07:45:05.453Z,24.4
2019-02-16T07:55:04.799Z,24.4
2019-02-16T08:05:04.045Z,24.3
2019-02-16T08:15:03.340Z,24.2
2019-02-16T08:25:02.630Z,24.2
2019-02-16T08:35:01.885Z,24.3
2019-02-16T08:45:01.147Z,24.2
2019-02-16T08:55:54.948Z,23.9
2019-02-16T09:05:54.155Z,24.2
2019-02-16T09:15:53.370Z,24.6
2019-02-16T09:25:52.581Z,24.6
2019-02-16T09:35:51.798Z,24.5
2019-02-16T09:45:51.014Z,24.1
2019-02-16T09:55:50.243Z,24.4
2019-02-16T10:05:49.538Z,24.3
2019-02-16T10:15:48.834Z,24.3
2019-02-16T10:25:48.127Z,24.1
2019-02-16T10:35:47.421Z,24.1
2019-02-16T10:45:46.720Z,24.3
2019-02-16T10:55:45.975Z,23.3
2019-02-16T11:05:45.192Z,23.6
2019-02-16T11:15:44.408Z,23.9
2019-02-16T11:25:43.625Z,23.6
2019-02-16T11:35:42.843Z,23.3
2019-02-16T11:45:42.058Z,20.9
2019-02-16T11:57:03.841Z,23.1
2019-02-16T12:07:03.061Z,24.9
2019-02-16T12:17:02.280Z,24.8
2019-02-16T12:27:01.546Z,24.3
2019-02-16T12:37:00.713Z,23.4
2019-02-16T12:47:00.028Z,23.8
2019-02-16T12:56:59.203Z,23.6
2019-02-16T13:06:58.462Z,23.9
2019-02-16T13:16:57.750Z,23.7
2019-02-16T13:26:57.042Z,23.5
2019-02-16T13:36:56.339Z,23.6
2019-02-16T13:49:45.298Z,23.6
2019-02-16T13:59:44.501Z,24.1
2019-02-16T14:09:43.765Z,23.9
2019-02-16T14:19:42.924Z,23.4
2019-02-16T14:29:42.186Z,23.7
2019-02-16T14:39:41.347Z,23.6
2019-02-16T14:49:40.572Z,24.1
2019-02-16T14:59:39.872Z,24.1
2019-02-16T15:09:39.169Z,24.1
2019-02-16T15:19:38.464Z,23.6
2019-02-16T15:29:39.209Z,23.6
2019-02-16T15:39:38.422Z,23.6
2019-02-16T15:49:37.645Z,23.2
2019-02-16T15:59:36.857Z,23.1
2019-02-16T16:09:36.073Z,23.1
2019-02-16T16:19:35.292Z,23.4
2019-02-16T16:29:34.507Z,23.6
2019-02-16T16:39:33.723Z,23.5
2019-02-16T16:49:32.941Z,23.4
2019-02-16T16:59:32.208Z,23.5
2019-02-16T17:09:31.426Z,23.6
2019-02-16T17:19:30.594Z,23.5
2019-02-16T17:29:29.814Z,23.5
2019-02-16T17:39:29.033Z,23.7
2019-02-16T17:49:28.260Z,24.3
2019-02-16T17:59:27.468Z,23.6
2019-02-16T18:09:26.685Z,23.4
2019-02-16T18:19:25.952Z,24.1
2019-02-16T18:29:25.116Z,23.9
2019-02-16T18:39:24.329Z,23.9
2019-02-16T18:49:23.570Z,23.6
2019-02-16T18:59:22.756Z,23.9
2019-02-16T19:09:22.030Z,23.9
2019-02-16T19:19:21.183Z,23.9
2019-02-16T19:29:20.399Z,24.4
2019-02-16T19:39:19.614Z,23.6
2019-02-16T19:49:18.856Z,23.6
2019-02-16T19:59:18.053Z,24.3
2019-02-16T20:09:17.261Z,23.9
2019-02-16T20:19:16.480Z,23.8
2019-02-16T20:29:15.763Z,22.1
2019-02-16T20:39:15.017Z,22.9
2019-02-16T20:49:14.137Z,24.6
2019-02-16T20:59:13.356Z,25
2019-02-16T21:08:10.221Z,24.4
2019-02-16T21:18:07.858Z,23.8
2019-02-16T21:28:07.072Z,23.1
2019-02-16T21:38:06.288Z,23.1
2019-02-16T21:48:05.501Z,23.2
2019-02-16T21:58:07.932Z,23.9
2019-02-16T22:08:03.934Z,25
2019-02-16T22:18:03.226Z,24.3
2019-02-16T22:28:02.518Z,23.6
2019-02-16T22:38:01.800Z,23.1
2019-02-16T22:48:01.092Z,23.1
2019-02-16T22:58:00.377Z,23.2
2019-02-16T23:07:59.626Z,23.3
2019-02-16T23:17:58.835Z,23.4
2019-02-16T23:27:58.043Z,24.4
2019-02-16T23:37:57.251Z,24.8
2019-02-16T23:47:56.464Z,24.1
2019-02-16T23:57:55.667Z,22.8
